Fletcher, NC

12:46 PM EDT on June 03, 2015 (GMT -0400)
Asheville Regional | | Change Station
CLOSE
Current Station
Airport
Location: Asheville,
Elevation: 2169 ft
Nearby Weather Stations

Elev 2169 ft 35.43 °N, 82.54 °W | Updated 8 minutes ago

Overcast
Overcast
70 °F
Feels Like 70 °F
N
6
Wind Variable Wind from ESE

Today
High -- | Low -- °F
--% Chance of Precip.
Yesterday
High -- | Low -- °F
Precip. -- in
6:15 AM 8:41 PM
Full, 99% visible
Pressure 30.09 in
Visibility 10.0 miles
Clouds Mostly Cloudy 2500 ft
Mostly Cloudy 3000 ft
Overcast 4400 ft
Dew Point 57 °F
Humidity 63%
Rainfall 0.00 in
Snow Depth Not available.
UV 4 out of 12
Pollen 4.60 out of 12
Air Quality Not available.
Flu Activity No Activity
SPECI KAVL 031638Z 11005KT 10SM BKN025 BKN030 OVC044 21/14 A3009 RMK AO2 LTG DSNT SW AND W T02110139

More Conditions Fewer Conditions

Pressure 30.09 in
Visibility 10.0 miles
Clouds Mostly Cloudy 2500 ft
Mostly Cloudy 3000 ft
Overcast 4400 ft
Dew Point 57 °F
Humidity 63%
Rainfall 0.00 in
Snow Depth Not available.
UV 4 out of 12
Pollen 4.60 out of 12
Air Quality Not available.
Flu Activity No Activity
SPECI KAVL 031638Z 11005KT 10SM BKN025 BKN030 OVC044 21/14 A3009 RMK AO2 LTG DSNT SW AND W T02110139

More Conditions Fewer Conditions

10-Day Weather Forecast

×

Almanac

Astronomy

Jun. 03, 2015 Rise Set
Actual Time
Civil Twilight
Nautical Twilight
Astronomical Twilight
Moon
Length of Visible Light
Length of Day
Tomorrow will be .
, % of the Moon is Illuminated

Today's Extremes

State Highs State Lows

Community

WunderPhotos

Upload Photos

1,826,256 photos uploaded!

WunderBlogs® & News

Nearby

Air Quality

  Air Quality AQ Index Pollutant
Not available.

Snow Depth

Station Depth Elevation

Earthquake Activity

City Distance Mag. Time & Date
Minimum magnitude displayed is 2.5.

Coastal Water Temperatures

Place Temperature

Stations

Nearby Weather Stations

Station Location Temp. Windchill Dew Point Humidity Wind Precip. Elev Updated Type